Lithia, Florida
Current Conditions -  °F | °C
As of 1:55 PM on Sunday 23 Nov 2014 (Local Time) from KPCM Reporting Station
Scattered Clouds Scattered Clouds  
Wind Chill: 86°   Ceiling: Unl
Heat Index: 90°   Visibility: 10mi
Dew Point: 70°   Wind: 14mph
Humidity: 58%   Direction: 190°S
Pressure: 29.91"   Gusts: 22mph
Location:  27.85°N, 82.17°W
Report Text: KPCM 231855Z AUTO 19012G19KT 10SM SCT032 SCT060 30/21 A2991 RMK AO2
Loading
Personal Weather Stations






























Interactive Weather Map New forecast layout! Learn more

10-Day Weather Forecast

Advertisements
Track Severe Weather on mobile